Time;durP1;ratioP1;P1;durP2;ratioP2;P2;SDS_P1;SDS_P2;PMS_P1;PMS_P2;Temp;Humidity;BMP_temperature;BMP_pressure;BME280_temperature;BME280_humidity;BME280_pressure;Samples;Min_cycle;Max_cycle;Signal;HPM_P1;HPM_P2
2021/09/18 00:01:57;;;;;;;0.93;0.63;;;;;;;11.89;100.00;100803.72;5134696;27;20550;-72
2021/09/18 00:04:22;;;;;;;1.00;0.80;;;;;;;11.90;100.00;100808.06;5134316;27;20173;-71
2021/09/18 00:06:47;;;;;;;0.63;0.63;;;;;;;11.91;100.00;100802.28;5135028;27;20169;-71
2021/09/18 00:09:13;;;;;;;1.07;0.50;;;;;;;11.94;100.00;100798.09;5134583;27;20230;-72
2021/09/18 00:11:39;;;;;;;0.50;0.50;;;;;;;11.96;100.00;100806.81;5134882;27;20620;-71
2021/09/18 00:14:05;;;;;;;1.20;1.00;;;;;;;11.96;100.00;100804.06;5115939;27;20173;-71
2021/09/18 00:16:30;;;;;;;1.37;0.67;;;;;;;11.91;100.00;100802.28;5134728;27;20267;-72
2021/09/18 00:18:55;;;;;;;5.77;0.70;;;;;;;11.89;100.00;100810.00;5134686;27;20176;-72
2021/09/18 00:21:22;;;;;;;0.70;0.70;;;;;;;11.89;100.00;100807.25;5134527;27;20591;-71
2021/09/18 00:23:48;;;;;;;1.10;1.00;;;;;;;11.88;100.00;100802.91;5134262;27;20173;-72
2021/09/18 00:26:13;;;;;;;1.40;1.20;;;;;;;11.86;100.00;100809.78;5134426;27;20636;-71
2021/09/18 00:28:39;;;;;;;0.53;0.53;;;;;;;11.82;100.00;100806.88;5115980;27;20275;-71
2021/09/18 00:31:04;;;;;;;0.43;0.43;;;;;;;11.84;100.00;100806.56;5134436;27;20673;-71
2021/09/18 00:33:29;;;;;;;3.03;0.60;;;;;;;11.86;100.00;100802.41;5134375;27;20168;-71
2021/09/18 00:35:55;;;;;;;0.80;0.80;;;;;;;11.88;100.00;100807.59;5134166;27;20506;-72
2021/09/18 00:38:20;;;;;;;2.00;1.23;;;;;;;11.85;100.00;100802.69;5134130;27;20199;-71
2021/09/18 00:40:46;;;;;;;0.70;0.50;;;;;;;11.75;100.00;100798.28;5115602;27;20253;-72
2021/09/18 00:43:11;;;;;;;0.60;0.60;;;;;;;11.64;100.00;100802.34;5134188;27;20515;-71
2021/09/18 00:45:37;;;;;;;0.50;0.50;;;;;;;11.58;100.00;100800.88;5133869;27;20173;-72
2021/09/18 00:48:03;;;;;;;1.03;0.80;;;;;;;11.43;100.00;100801.19;5134149;27;20225;-72
2021/09/18 00:50:28;;;;;;;0.93;0.60;;;;;;;11.31;100.00;100799.03;5133927;27;20172;-71
2021/09/18 00:52:53;;;;;;;1.83;0.90;;;;;;;11.26;100.00;100794.44;5133999;27;20252;-71
2021/09/18 00:55:19;;;;;;;0.53;0.53;;;;;;;11.19;100.00;100796.00;5133363;27;20176;-71
2021/09/18 00:57:45;;;;;;;1.47;0.73;;;;;;;11.17;100.00;100793.56;5133912;27;20202;-71
2021/09/18 01:00:13;;;;;;;2.30;0.80;;;;;;;11.14;100.00;100772.31;5133683;27;20200;-71
2021/09/18 01:02:39;;;;;;;1.17;0.83;;;;;;;11.10;100.00;100784.97;5133710;27;20612;-72
2021/09/18 01:05:06;;;;;;;1.27;0.63;;;;;;;11.05;100.00;100789.75;5133291;27;20573;-71
2021/09/18 01:07:32;;;;;;;1.47;0.60;;;;;;;10.99;100.00;100809.00;5133393;27;20164;-71
2021/09/18 01:09:58;;;;;;;0.60;0.60;;;;;;;10.96;100.00;100809.59;5133760;27;20493;-71
2021/09/18 01:12:23;;;;;;;1.50;0.70;;;;;;;10.99;100.00;100810.91;5133509;27;20168;-71
2021/09/18 01:14:48;;;;;;;1.07;0.90;;;;;;;10.94;100.00;100814.56;5133269;27;20164;-71
2021/09/18 01:17:16;;;;;;;1.63;0.90;;;;;;;10.86;100.00;100782.47;5133496;27;20165;-72
2021/09/18 01:19:42;;;;;;;0.70;0.50;;;;;;;10.85;100.00;100878.41;5133346;27;20217;-71
2021/09/18 01:22:08;;;;;;;0.57;0.57;;;;;;;10.79;100.00;100811.31;5133431;27;20533;-72
2021/09/18 01:24:37;;;;;;;1.67;0.73;;;;;;;10.78;100.00;100807.78;5133337;27;20278;-71
2021/09/18 01:27:04;;;;;;;0.60;0.60;;;;;;;10.73;100.00;100805.97;5133165;27;20180;-71
2021/09/18 01:29:29;;;;;;;0.77;0.73;;;;;;;10.69;100.00;100809.59;5114700;27;20584;-71
2021/09/18 01:31:55;;;;;;;0.50;0.50;;;;;;;10.63;100.00;100811.63;5133261;27;20204;-72
2021/09/18 01:34:22;;;;;;;0.90;0.60;;;;;;;10.51;100.00;100778.50;5132838;27;20543;-72
2021/09/18 01:36:49;;;;;;;1.63;1.53;;;;;;;10.50;100.00;100790.56;5133050;27;20179;-71
2021/09/18 01:39:16;;;;;;;0.60;0.60;;;;;;;10.53;100.00;100806.34;5133073;27;20173;-71
2021/09/18 01:41:43;;;;;;;1.20;1.10;;;;;;;10.54;100.00;100807.94;5132884;27;20348;-72
2021/09/18 01:44:10;;;;;;;0.80;0.80;;;;;;;10.55;100.00;100801.38;5132777;27;20196;-72
2021/09/18 01:46:35;;;;;;;1.23;0.57;;;;;;;10.49;100.00;100807.25;5132668;27;20179;-72
2021/09/18 01:49:01;;;;;;;0.80;0.50;;;;;;;10.41;100.00;100790.47;5132639;27;20172;-72
2021/09/18 01:51:29;;;;;;;0.57;0.57;;;;;;;10.41;100.00;100793.19;5132536;27;20179;-71
2021/09/18 01:53:55;;;;;;;0.70;0.70;;;;;;;10.36;100.00;100804.19;5132519;27;20183;-72
2021/09/18 01:56:20;;;;;;;0.43;0.43;;;;;;;10.35;100.00;100816.22;5132622;27;20176;-71
2021/09/18 01:58:46;;;;;;;1.00;0.90;;;;;;;10.48;100.00;100820.09;5132653;27;20247;-71
2021/09/18 02:01:11;;;;;;;1.80;0.70;;;;;;;10.48;100.00;100820.09;5132939;27;20200;-72
2021/09/18 02:03:36;;;;;;;1.40;0.83;;;;;;;10.50;100.00;100812.41;5132415;27;20217;-72
2021/09/18 02:06:02;;;;;;;1.63;0.80;;;;;;;10.50;100.00;100812.41;5132384;27;20199;-72
2021/09/18 02:08:28;;;;;;;2.90;0.40;;;;;;;10.41;100.00;100816.94;5113344;27;20192;-72
2021/09/18 02:10:55;;;;;;;0.50;0.33;;;;;;;10.36;100.00;100833.44;5132403;27;20257;-71
2021/09/18 02:13:21;;;;;;;0.33;0.33;;;;;;;10.38;100.00;100836.66;5132418;27;20173;-72
2021/09/18 02:15:47;;;;;;;0.43;0.43;;;;;;;10.32;100.00;100802.38;5132126;27;20204;-71
2021/09/18 02:18:13;;;;;;;0.40;0.40;;;;;;;10.32;100.00;100803.19;5132164;27;20538;-72
2021/09/18 02:20:39;;;;;;;0.80;0.80;;;;;;;10.31;100.00;100806.22;5113623;27;20226;-72
2021/09/18 02:23:07;;;;;;;0.37;0.37;;;;;;;10.34;100.00;100809.16;5132168;27;20165;-71
2021/09/18 02:25:33;;;;;;;2.13;0.80;;;;;;;10.35;100.00;100797.13;5132065;27;20179;-71
2021/09/18 02:27:59;;;;;;;0.50;0.50;;;;;;;10.35;100.00;100805.31;5132075;27;20168;-71
2021/09/18 02:30:28;;;;;;;1.60;0.50;;;;;;;10.29;100.00;100806.53;5132033;27;20184;-72
2021/09/18 02:32:55;;;;;;;0.60;0.40;;;;;;;10.28;100.00;100810.38;5132300;27;20184;-71
2021/09/18 02:35:23;;;;;;;0.87;0.40;;;;;;;10.27;100.00;100816.94;5131830;27;20872;-71
2021/09/18 02:37:50;;;;;;;0.57;0.57;;;;;;;10.29;100.00;100819.38;5131871;27;20656;-72
2021/09/18 02:40:16;;;;;;;0.60;0.50;;;;;;;10.28;100.00;100831.41;5131781;27;20196;-72
2021/09/18 02:42:46;;;;;;;0.47;0.37;;;;;;;10.22;100.00;100840.78;5131808;27;20530;-71
2021/09/18 02:45:12;;;;;;;0.30;0.30;;;;;;;10.26;100.00;100823.47;5131736;27;20597;-72
2021/09/18 02:47:38;;;;;;;0.50;0.50;;;;;;;10.22;100.00;100816.19;5131939;27;20180;-72
2021/09/18 02:50:06;;;;;;;0.53;0.50;;;;;;;10.29;100.00;100819.38;5113468;27;20172;-71
2021/09/18 02:52:32;;;;;;;1.33;0.70;;;;;;;10.31;100.00;100825.34;5131709;27;20169;-71
2021/09/18 02:54:57;;;;;;;0.90;0.50;;;;;;;10.28;100.00;100832.22;5132038;27;20172;-72
2021/09/18 02:57:23;;;;;;;0.67;0.40;;;;;;;10.20;100.00;100824.66;5132152;27;21024;-71
2021/09/18 02:59:48;;;;;;;0.40;0.33;;;;;;;10.13;100.00;100821.53;5131749;27;20165;-72
2021/09/18 03:02:13;;;;;;;0.77;0.77;;;;;;;10.17;100.00;100835.38;5131733;27;20646;-72
2021/09/18 03:04:39;;;;;;;0.97;0.50;;;;;;;10.16;100.00;100834.56;5131229;28;20188;-71
2021/09/18 03:07:04;;;;;;;1.10;0.60;;;;;;;10.15;100.00;100841.13;5113085;28;20271;-72
2021/09/18 03:09:30;;;;;;;1.03;0.70;;;;;;;10.17;100.00;100847.09;5131407;28;20571;-72
2021/09/18 03:11:55;;;;;;;0.30;0.30;;;;;;;10.19;100.00;100839.44;5131682;28;20267;-71
2021/09/18 03:14:20;;;;;;;0.50;0.50;;;;;;;10.14;100.00;100834.06;5131229;28;20182;-72
2021/09/18 03:16:46;;;;;;;0.30;0.30;;;;;;;10.09;100.00;100858.69;5131482;28;20203;-72
2021/09/18 03:19:11;;;;;;;0.60;0.60;;;;;;;9.97;100.00;100853.69;5132959;27;20177;-71
2021/09/18 03:21:37;;;;;;;0.77;0.50;;;;;;;9.99;100.00;100826.94;5135643;27;20199;-72
2021/09/18 03:24:02;;;;;;;0.50;0.50;;;;;;;10.00;100.00;100855.03;5135524;27;20222;-71
2021/09/18 03:26:28;;;;;;;0.67;0.67;;;;;;;10.03;100.00;100835.34;5135651;27;20176;-71
2021/09/18 03:28:53;;;;;;;0.50;0.50;;;;;;;10.04;100.00;100843.22;5135748;27;20172;-72
2021/09/18 03:31:19;;;;;;;0.70;0.70;;;;;;;10.02;100.00;100841.91;5135466;27;20208;-72
2021/09/18 03:33:44;;;;;;;1.00;0.53;;;;;;;10.00;100.00;100839.47;5135344;27;20560;-71
2021/09/18 03:36:11;;;;;;;0.47;0.40;;;;;;;10.04;100.00;100847.88;5135783;27;20537;-72
2021/09/18 03:38:36;;;;;;;0.67;0.67;;;;;;;10.01;100.00;100860.19;5135081;27;20565;-72
2021/09/18 03:41:02;;;;;;;0.60;0.60;;;;;;;9.98;100.00;100833.50;5135251;27;20204;-72
2021/09/18 03:43:28;;;;;;;0.93;0.77;;;;;;;9.96;100.00;100841.16;5135493;27;20172;-71
2021/09/18 03:45:53;;;;;;;1.03;0.60;;;;;;;9.97;100.00;100842.78;5134876;27;20183;-72
2021/09/18 03:48:19;;;;;;;0.67;0.60;;;;;;;9.97;100.00;100852.88;5134689;27;20164;-72
2021/09/18 03:50:45;;;;;;;0.40;0.40;;;;;;;9.99;100.00;100856.97;5135150;27;20534;-71
2021/09/18 03:53:10;;;;;;;0.60;0.50;;;;;;;10.00;100.00;100850.38;5116684;27;20703;-72
2021/09/18 03:55:36;;;;;;;0.83;0.80;;;;;;;9.99;100.00;100846.03;5134838;27;20712;-71
2021/09/18 03:58:01;;;;;;;0.50;0.50;;;;;;;10.00;100.00;100872.22;5134701;27;20172;-72
2021/09/18 04:00:27;;;;;;;5.37;1.20;;;;;;;10.03;100.00;100879.81;5134857;27;20192;-72
2021/09/18 04:02:52;;;;;;;3.50;0.83;;;;;;;10.07;100.00;100878.09;5116311;27;20179;-72
2021/09/18 04:05:17;;;;;;;1.40;1.30;;;;;;;10.09;100.00;100884.06;5134540;27;20656;-71
2021/09/18 04:07:43;;;;;;;0.93;0.50;;;;;;;10.11;100.00;100867.41;5134538;27;20247;-71
2021/09/18 04:10:09;;;;;;;0.40;0.40;;;;;;;10.14;100.00;100872.28;5134750;27;20255;-71
2021/09/18 04:12:34;;;;;;;3.17;0.63;;;;;;;10.12;100.00;100875.28;5134714;27;20177;-72
2021/09/18 04:15:00;;;;;;;1.57;0.43;;;;;;;10.13;100.00;100873.41;5134583;27;20184;-71
2021/09/18 04:17:25;;;;;;;0.60;0.60;;;;;;;10.17;100.00;100876.34;5134633;27;20177;-72
2021/09/18 04:19:51;;;;;;;0.73;0.73;;;;;;;10.16;100.00;100871.97;5134267;27;20172;-71
2021/09/18 04:22:16;;;;;;;1.27;0.60;;;;;;;10.14;100.00;100870.38;5134287;27;20215;-72
2021/09/18 04:24:42;;;;;;;0.80;0.80;;;;;;;10.21;100.00;100878.19;5133963;27;20181;-72
2021/09/18 04:27:07;;;;;;;1.33;0.67;;;;;;;10.25;100.00;100883.88;5134594;27;20176;-72
2021/09/18 04:29:32;;;;;;;0.47;0.47;;;;;;;10.29;100.00;100884.91;5134442;27;20169;-72
2021/09/18 04:31:58;;;;;;;0.47;0.47;;;;;;;10.37;100.00;100878.75;5133600;27;20169;-71
2021/09/18 04:34:23;;;;;;;4.17;0.90;;;;;;;10.43;100.00;100883.03;5133977;27;20638;-72
2021/09/18 04:36:49;;;;;;;2.70;1.20;;;;;;;10.46;100.00;100871.50;5134159;27;20176;-72
2021/09/18 04:39:14;;;;;;;1.37;0.90;;;;;;;10.52;100.00;100878.47;5134243;27;20482;-71
2021/09/18 04:41:39;;;;;;;3.70;0.50;;;;;;;10.61;100.00;100887.63;5115839;27;20208;-72
2021/09/18 04:44:05;;;;;;;1.10;0.90;;;;;;;10.64;100.00;100878.00;5133955;27;20172;-72
2021/09/18 04:46:31;;;;;;;4.43;1.20;;;;;;;10.67;100.00;100883.66;5134009;27;20173;-72
2021/09/18 04:48:56;;;;;;;2.40;0.70;;;;;;;10.73;100.00;100885.22;5134013;27;20169;-72
2021/09/18 04:51:21;;;;;;;0.77;0.70;;;;;;;10.76;100.00;100883.00;5134172;27;20357;-71
2021/09/18 04:53:47;;;;;;;1.03;0.87;;;;;;;10.77;100.00;100881.88;5133642;27;20642;-72
2021/09/18 04:56:12;;;;;;;0.70;0.70;;;;;;;10.83;100.00;100897.06;5133809;27;20180;-72
2021/09/18 04:58:38;;;;;;;0.60;0.60;;;;;;;10.86;100.00;100886.34;5133739;27;20572;-73
2021/09/18 05:01:03;;;;;;;0.47;0.43;;;;;;;10.89;100.00;100896.69;5133674;27;20642;-71
2021/09/18 05:03:28;;;;;;;4.10;0.77;;;;;;;10.91;100.00;100890.91;5111533;27;20551;-71
2021/09/18 05:05:54;;;;;;;0.53;0.53;;;;;;;10.92;100.00;100895.25;5133428;27;20195;-71
2021/09/18 05:08:19;;;;;;;0.60;0.60;;;;;;;10.96;100.00;100888.88;5133675;27;20184;-71
2021/09/18 05:10:44;;;;;;;0.80;0.70;;;;;;;10.97;100.00;100892.41;5115332;27;20559;-72
2021/09/18 05:13:10;;;;;;;1.27;0.93;;;;;;;10.97;100.00;100895.94;5133721;27;20640;-71
2021/09/18 05:15:35;;;;;;;0.60;0.60;;;;;;;10.98;100.00;100891.28;5133314;27;20176;-71
2021/09/18 05:18:00;;;;;;;0.80;0.47;;;;;;;11.02;100.00;100895.06;5133672;27;20191;-72
2021/09/18 05:20:26;;;;;;;0.63;0.40;;;;;;;11.05;100.00;100899.91;5133500;27;20678;-72
2021/09/18 05:22:52;;;;;;;1.17;0.50;;;;;;;11.06;100.00;100900.72;5115157;27;20209;-72
2021/09/18 05:25:17;;;;;;;0.93;0.40;;;;;;;11.03;100.00;100896.69;5133197;27;20204;-71
2021/09/18 05:27:43;;;;;;;0.77;0.77;;;;;;;11.01;100.00;100907.94;5133395;27;20180;-71
2021/09/18 05:30:10;;;;;;;1.10;0.67;;;;;;;11.05;100.00;100910.84;5133790;27;20282;-72
2021/09/18 05:32:35;;;;;;;0.60;0.60;;;;;;;11.08;100.00;100912.97;5133143;27;20181;-72
2021/09/18 05:35:01;;;;;;;3.50;0.80;;;;;;;11.12;100.00;100915.91;5132934;27;20183;-71
2021/09/18 05:37:27;;;;;;;0.60;0.60;;;;;;;11.13;100.00;100918.34;5133366;27;20264;-71
2021/09/18 05:39:52;;;;;;;3.63;0.67;;;;;;;11.15;100.00;100913.41;5133077;27;20540;-71
2021/09/18 05:42:17;;;;;;;0.67;0.57;;;;;;;11.19;100.00;100914.41;5132068;27;20237;-71
2021/09/18 05:44:43;;;;;;;1.40;1.10;;;;;;;11.23;100.00;100918.16;5132704;27;20643;-71
2021/09/18 05:47:08;;;;;;;0.70;0.47;;;;;;;11.25;100.00;100921.38;5133020;27;20168;-71
2021/09/18 05:49:33;;;;;;;0.43;0.43;;;;;;;11.28;100.00;100914.50;5132819;27;20173;-71
2021/09/18 05:51:59;;;;;;;1.87;0.70;;;;;;;11.27;100.00;100916.41;5133090;27;20253;-71
2021/09/18 05:54:26;;;;;;;0.60;0.60;;;;;;;11.26;100.00;100917.53;5132447;27;20180;-71
2021/09/18 05:56:52;;;;;;;1.50;0.90;;;;;;;11.29;100.00;100916.94;5132901;27;20168;-72
2021/09/18 05:59:17;;;;;;;1.03;0.80;;;;;;;11.28;100.00;100922.69;5132413;27;20225;-72
2021/09/18 06:01:42;;;;;;;0.80;0.80;;;;;;;11.26;100.00;100931.22;5114021;27;20295;-72
2021/09/18 06:04:08;;;;;;;0.40;0.40;;;;;;;11.29;100.00;100929.81;5132116;27;20192;-72
2021/09/18 06:06:33;;;;;;;0.60;0.60;;;;;;;11.30;100.00;100928.69;5132735;27;20593;-72
2021/09/18 06:08:58;;;;;;;2.07;0.63;;;;;;;11.26;100.00;100930.41;5132378;27;20668;-72
2021/09/18 06:11:24;;;;;;;0.50;0.50;;;;;;;11.27;100.00;100927.34;5132453;27;20168;-72
2021/09/18 06:13:49;;;;;;;1.80;0.90;;;;;;;11.30;100.00;100931.44;5132270;27;20211;-72
2021/09/18 06:16:15;;;;;;;0.53;0.43;;;;;;;11.33;100.00;100934.38;5132424;27;20619;-72
2021/09/18 06:18:41;;;;;;;0.50;0.50;;;;;;;11.35;100.00;100925.84;5132504;27;20187;-68
2021/09/18 06:21:08;;;;;;;1.17;0.67;;;;;;;11.37;100.00;100917.34;5132186;27;20200;-74
2021/09/18 06:23:33;;;;;;;0.70;0.70;;;;;;;11.37;100.00;100922.81;5132280;27;20206;-73
2021/09/18 06:25:59;;;;;;;0.57;0.40;;;;;;;11.39;100.00;100918.66;5131972;27;20175;-72
2021/09/18 06:28:25;;;;;;;0.37;0.37;;;;;;;11.42;100.00;100915.28;5131580;27;20212;-71
2021/09/18 06:30:50;;;;;;;0.40;0.40;;;;;;;11.46;100.00;100915.53;5131943;27;20222;-71
2021/09/18 06:33:15;;;;;;;1.40;0.70;;;;;;;11.51;100.00;100942.75;5132033;27;20209;-71
2021/09/18 06:35:41;;;;;;;0.93;0.93;;;;;;;11.55;100.00;100930.09;5131897;27;20176;-71
2021/09/18 06:38:06;;;;;;;0.93;0.80;;;;;;;11.58;100.00;100940.44;5131883;27;20168;-71
2021/09/18 06:40:32;;;;;;;1.60;1.00;;;;;;;11.59;100.00;100933.84;5131727;27;20291;-71
2021/09/18 06:42:57;;;;;;;0.80;0.77;;;;;;;11.62;100.00;100938.72;5131855;27;20184;-71
2021/09/18 06:45:22;;;;;;;1.47;1.00;;;;;;;11.66;100.00;100936.16;5131603;27;20176;-72
2021/09/18 06:47:48;;;;;;;1.03;0.90;;;;;;;11.73;100.00;100948.31;5131880;27;20187;-71
2021/09/18 06:50:13;;;;;;;1.47;1.13;;;;;;;11.77;100.00;100943.03;5131828;27;20865;-71
2021/09/18 06:52:39;;;;;;;1.07;0.83;;;;;;;11.78;100.00;100944.66;5131833;27;20172;-72
2021/09/18 06:55:06;;;;;;;1.17;0.90;;;;;;;11.84;100.00;100947.00;5131211;27;20205;-71
2021/09/18 06:57:32;;;;;;;1.03;1.03;;;;;;;11.90;100.00;100954.00;5131769;27;20251;-72
2021/09/18 06:59:58;;;;;;;1.87;0.93;;;;;;;11.93;100.00;100946.28;5131355;27;20210;-71
2021/09/18 07:02:23;;;;;;;0.90;0.90;;;;;;;11.98;100.00;100951.63;5131686;27;20176;-71
2021/09/18 07:04:49;;;;;;;1.33;1.07;;;;;;;12.03;100.00;100946.88;5131169;27;20186;-71
2021/09/18 07:07:14;;;;;;;1.60;1.50;;;;;;;12.09;100.00;100953.84;5112283;27;20177;-72
2021/09/18 07:09:39;;;;;;;5.13;1.33;;;;;;;12.12;100.00;100966.91;5131675;28;20184;-71
2021/09/18 07:12:05;;;;;;;0.93;0.93;;;;;;;12.19;100.00;100966.50;5131341;28;20169;-71
2021/09/18 07:14:30;;;;;;;1.03;1.03;;;;;;;12.18;100.00;100964.88;5131127;28;20177;-71
2021/09/18 07:16:56;;;;;;;1.60;1.50;;;;;;;12.26;100.00;100974.28;5131337;27;20426;-72
2021/09/18 07:19:21;;;;;;;1.37;1.03;;;;;;;12.29;100.00;100974.47;5131245;27;20173;-72
2021/09/18 07:21:46;;;;;;;1.73;1.00;;;;;;;12.31;100.00;100976.91;5127831;27;20212;-71
2021/09/18 07:24:12;;;;;;;3.40;1.20;;;;;;;12.31;100.00;100977.72;5130733;28;20647;-71
2021/09/18 07:26:38;;;;;;;0.90;0.90;;;;;;;12.30;100.00;100981.59;5130193;28;20624;-72
2021/09/18 07:29:04;;;;;;;3.60;1.47;;;;;;;12.33;100.00;100967.28;5131295;28;20172;-71
2021/09/18 07:31:30;;;;;;;1.83;1.43;;;;;;;12.46;100.00;100971.88;5131606;28;20173;-72
2021/09/18 07:33:55;;;;;;;1.67;1.57;;;;;;;12.48;100.00;100974.31;5130958;28;20739;-72
2021/09/18 07:36:21;;;;;;;1.60;1.50;;;;;;;12.51;100.00;100973.69;5119912;28;20263;-71
2021/09/18 07:38:46;;;;;;;1.70;1.60;;;;;;;12.57;100.00;100977.09;5131170;27;20259;-71
2021/09/18 07:41:12;;;;;;;1.83;1.20;;;;;;;12.63;100.00;100981.34;5131306;28;20196;-71
2021/09/18 07:43:38;;;;;;;3.27;1.23;;;;;;;12.63;100.00;100982.16;5131094;28;20632;-71
2021/09/18 07:46:04;;;;;;;1.93;1.43;;;;;;;12.66;100.00;100986.22;5130990;27;20165;-72
2021/09/18 07:48:30;;;;;;;1.30;1.20;;;;;;;12.68;100.00;100989.44;5112880;28;20537;-73
2021/09/18 07:50:56;;;;;;;1.73;1.20;;;;;;;12.69;100.00;100986.38;5130885;27;20169;-72
2021/09/18 07:53:22;;;;;;;1.57;1.33;;;;;;;12.73;100.00;100992.03;5131046;28;20188;-72
2021/09/18 07:55:47;;;;;;;1.00;1.00;;;;;;;12.70;100.00;100992.69;5130628;28;20172;-72
2021/09/18 07:58:17;;;;;;;1.30;1.20;;;;;;;12.72;100.00;100990.44;5130892;28;20515;-72
2021/09/18 08:00:43;;;;;;;1.63;1.53;;;;;;;12.73;100.00;100992.03;5130786;28;20201;-73
2021/09/18 08:03:09;;;;;;;1.10;1.00;;;;;;;12.82;100.00;100987.44;5130699;28;20169;-73
2021/09/18 08:05:34;;;;;;;1.47;1.37;;;;;;;12.90;100.00;101000.41;5130856;27;20191;-73
2021/09/18 08:08:01;;;;;;;3.93;1.27;;;;;;;12.94;100.00;100995.91;5134764;27;20177;-72
2021/09/18 08:10:26;;;;;;;1.47;1.37;;;;;;;13.00;100.00;100989.16;5134582;27;20173;-72
2021/09/18 08:12:52;;;;;;;1.20;1.10;;;;;;;13.09;100.00;100995.50;5134474;27;20176;-72
2021/09/18 08:15:18;;;;;;;1.87;1.07;;;;;;;13.18;100.00;100997.50;5134293;27;20172;-72
2021/09/18 08:17:45;;;;;;;1.80;1.27;;;;;;;13.23;100.00;101003.69;5134336;27;20506;-72
2021/09/18 08:20:12;;;;;;;2.27;1.77;;;;;;;13.26;100.00;101005.78;5134247;27;20176;-72
2021/09/18 08:22:38;;;;;;;5.03;1.70;;;;;;;13.31;100.00;101007.59;5134392;27;20169;-72
2021/09/18 08:25:05;;;;;;;2.97;1.60;;;;;;;13.42;100.00;101010.88;5134550;27;20167;-72
2021/09/18 08:27:31;;;;;;;2.10;1.90;;;;;;;13.45;100.00;101008.28;5140634;27;20173;-72
2021/09/18 08:29:56;;;;;;;3.70;2.10;;;;;;;13.46;100.00;101009.94;5137451;27;20171;-72
2021/09/18 08:32:22;;;;;;;3.23;1.80;;;;;;;13.49;100.00;101012.03;5134160;27;20569;-72
2021/09/18 08:34:47;;;;;;;2.20;2.00;;;;;;;13.49;100.00;101013.97;5133829;27;20553;-72
2021/09/18 08:37:14;;;;;;;1.83;1.60;;;;;;;13.50;100.00;101013.66;5134361;27;20194;-72
2021/09/18 08:39:39;;;;;;;2.30;1.93;;;;;;;13.57;100.00;101019.50;5133966;27;20184;-72
2021/09/18 08:42:06;;;;;;;2.37;1.97;;;;;;;13.55;100.00;101016.25;5134311;27;20581;-72
2021/09/18 08:44:33;;;;;;;2.50;1.60;;;;;;;13.56;100.00;101019.81;5133688;27;20272;-72
2021/09/18 08:47:00;;;;;;;3.77;1.87;;;;;;;13.61;100.00;101023.22;5133931;27;20176;-72
2021/09/18 08:49:27;;;;;;;2.20;1.90;;;;;;;13.65;100.00;101018.72;5133685;27;20172;-72
2021/09/18 08:51:52;;;;;;;1.93;1.83;;;;;;;13.60;100.00;101013.38;5133912;27;20169;-72
2021/09/18 08:54:18;;;;;;;2.37;1.70;;;;;;;13.61;100.00;101019.69;5133447;27;20681;-72
2021/09/18 08:56:43;;;;;;;2.73;2.53;;;;;;;13.63;100.00;101009.19;5133529;27;20212;-72
2021/09/18 08:59:08;;;;;;;2.47;2.07;;;;;;;13.74;100.00;101015.19;5133542;27;20217;-72
2021/09/18 09:01:34;;;;;;;3.43;2.63;;;;;;;13.81;100.00;101016.34;5133544;27;20208;-72
2021/09/18 09:04:02;;;;;;;2.07;1.70;;;;;;;13.93;100.00;101027.53;5133415;27;20169;-72
2021/09/18 09:06:52;;;;;;;2.63;2.33;;;;;;;14.07;100.00;101030.16;5133539;27;20173;-72
2021/09/18 09:09:17;;;;;;;2.37;2.10;;;;;;;14.13;100.00;101036.28;5133225;27;20168;-72
2021/09/18 09:11:48;;;;;;;2.13;2.00;;;;;;;14.13;100.00;101034.34;5133258;27;20225;-72
2021/09/18 09:14:14;;;;;;;2.20;1.97;;;;;;;14.12;100.00;101035.47;5132861;27;20177;-71
2021/09/18 09:16:55;;;;;;;2.97;2.57;;;;;;;14.21;100.00;101030.00;5133125;27;20187;-72
2021/09/18 09:19:21;;;;;;;3.50;2.80;;;;;;;14.21;100.00;101027.25;5133232;27;20176;-72
2021/09/18 09:21:53;;;;;;;2.97;2.40;;;;;;;14.24;100.00;101026.63;5133003;27;20248;-72
2021/09/18 09:24:22;;;;;;;3.07;2.83;;;;;;;14.43;100.00;101026.28;5132957;27;20177;-72
2021/09/18 09:27:07;;;;;;;2.80;2.60;;;;;;;14.51;100.00;101034.59;5133016;27;20663;-72
2021/09/18 09:29:52;;;;;;;2.70;2.50;;;;;;;14.60;100.00;101034.56;5133194;27;20173;-72
2021/09/18 09:32:26;;;;;;;3.23;2.77;;;;;;;14.60;100.00;101037.31;5114367;27;20180;-72
2021/09/18 09:34:53;;;;;;;2.93;2.67;;;;;;;14.60;100.00;101029.06;5132589;27;20616;-72
2021/09/18 09:37:20;;;;;;;2.77;2.57;;;;;;;14.63;100.00;101036.69;5132810;27;20178;-71
2021/09/18 09:39:53;;;;;;;3.37;3.07;;;;;;;14.72;100.00;101029.22;5132687;27;20524;-72
2021/09/18 09:42:33;;;;;;;2.53;2.17;;;;;;;14.74;100.00;101026.97;5132715;27;20204;-72
2021/09/18 09:45:11;;;;;;;3.33;2.80;;;;;;;14.78;100.00;101032.66;5132121;27;20176;-72
2021/09/18 09:47:37;;;;;;;3.33;2.77;;;;;;;14.76;100.00;101029.41;5132598;27;20743;-72
2021/09/18 09:50:03;;;;;;;1.97;1.83;;;;;;;14.85;100.00;101033.75;5132658;27;20232;-72
2021/09/18 09:52:31;;;;;;;2.30;2.07;;;;;;;14.92;100.00;101029.72;5132580;27;20181;-72
2021/09/18 09:55:14;;;;;;;2.23;2.03;;;;;;;14.89;100.00;101018.19;5132814;27;20168;-72
2021/09/18 09:57:41;;;;;;;3.97;3.13;;;;;;;14.90;100.00;101019.03;5132531;27;20172;-72
2021/09/18 10:00:11;;;;;;;2.60;1.77;;;;;;;15.10;100.00;101034.84;5132275;27;20164;-72
2021/09/18 10:02:38;;;;;;;2.63;2.03;;;;;;;15.17;100.00;101039.84;5113868;27;20506;-72
2021/09/18 10:05:06;;;;;;;2.77;2.57;;;;;;;15.22;100.00;101039.69;5131782;27;20222;-72
2021/09/18 10:07:31;;;;;;;2.50;2.30;;;;;;;15.23;100.00;101035.00;5132238;27;20835;-72
2021/09/18 10:09:58;;;;;;;2.87;2.30;;;;;;;15.42;100.00;101040.91;5132168;27;20255;-72
2021/09/18 10:12:25;;;;;;;2.43;2.23;;;;;;;15.48;100.00;101043.16;5132152;27;20172;-72
2021/09/18 10:14:54;;;;;;;4.57;2.53;;;;;;;15.51;100.00;101038.94;5131825;27;20168;-72
2021/09/18 10:17:19;;;;;;;2.03;1.93;;;;;;;15.65;100.00;101044.28;5132004;27;20176;-72
2021/09/18 10:25:23;;;;;;;2.67;2.27;;;;;;;15.91;100.00;101046.88;5131923;27;20183;-72
2021/09/18 10:28:09;;;;;;;5.03;3.13;;;;;;;15.87;100.00;101041.22;5132012;27;20164;-72
2021/09/18 10:30:48;;;;;;;5.27;2.60;;;;;;;15.96;100.00;101041.19;5131720;27;20222;-72
2021/09/18 10:33:40;;;;;;;3.47;2.30;;;;;;;16.04;100.00;101043.88;5131718;27;20240;-72
2021/09/18 10:36:09;;;;;;;2.20;2.07;;;;;;;15.96;100.00;101039.25;5131812;27;20172;-72
2021/09/18 10:38:41;;;;;;;2.20;2.00;;;;;;;16.09;100.00;101037.38;5132142;27;20160;-72
2021/09/18 10:41:09;;;;;;;1.83;1.70;;;;;;;16.28;100.00;101042.44;5131346;27;20231;-74
2021/09/18 10:43:53;;;;;;;2.13;1.83;;;;;;;16.35;100.00;101045.50;5131595;27;20181;-71
2021/09/18 10:46:50;;;;;;;2.60;2.40;;;;;;;16.21;100.00;101036.66;5131349;27;20185;-74
2021/09/18 10:49:34;;;;;;;1.90;1.80;;;;;;;16.22;100.00;101041.03;5131579;27;20263;-74
2021/09/18 10:52:18;;;;;;;1.90;1.80;;;;;;;16.24;100.00;101034.03;5131555;27;20176;-74
2021/09/18 10:57:51;;;;;;;2.37;2.10;;;;;;;16.44;100.00;101032.41;5131576;27;20212;-74
2021/09/18 11:00:19;;;;;;;1.90;1.80;;;;;;;16.51;100.00;101037.41;5131282;27;20230;-74
2021/09/18 11:02:51;;;;;;;2.00;1.90;;;;;;;16.40;100.00;101037.00;5131490;27;20176;-74
2021/09/18 11:05:26;;;;;;;2.90;2.47;;;;;;;16.22;100.00;101030.00;5130962;27;20184;-74
2021/09/18 11:08:20;;;;;;;2.17;1.90;;;;;;;16.40;100.00;101042.53;5131364;28;20174;-74
2021/09/18 11:10:45;;;;;;;2.20;2.10;;;;;;;16.36;100.00;101039.63;5131436;27;20180;-74
2021/09/18 11:13:11;;;;;;;2.13;2.03;;;;;;;16.70;100.00;101040.53;5131616;27;20255;-71
2021/09/18 11:15:43;;;;;;;4.47;2.10;;;;;;;16.90;100.00;101039.69;5130881;28;20171;-72
2021/09/18 11:18:13;;;;;;;2.87;2.67;;;;;;;16.46;100.00;101030.13;5131316;28;20338;-71
2021/09/18 11:20:38;;;;;;;2.40;2.30;;;;;;;16.72;100.00;101043.75;5131077;28;20676;-74
2021/09/18 11:23:03;;;;;;;2.00;1.90;;;;;;;16.81;99.24;101044.50;5131226;28;20285;-74
2021/09/18 11:25:35;;;;;;;2.97;2.57;;;;;;;16.71;97.68;101035.81;5130895;28;20173;-74